»·PEaware :: SWA3560 KSFO-KPDX

SWA3560 :: KSFO-KPDX

FLIGHT INFORMATION

Flight Status: Arrived
Operator:
Southwest Airlines
More flights by this operator :: More flights under this callsign
Pilot: Ben F. (2808)
Aircraft: BOEING 737-800
(B738)
More flights by this aircraft type
Origin: KSFO San Francisco Intl
United States
Destination: KPDX Portland Intl
United States
More flights between these airports :: More routes between these airports
Route: TRUKN2 GRTFL MACHU TMBRS2
File this flight plan on PilotEdge
Remarks: PBN / A1B1C1D1S1S2 NAV / RNVD1E2A1 REG / N501EA EET / KZSE0038 RMK / SIMBRIEF
Altitude:
(Current/Filed)
36,000ft
Speed:
(Current/Filed)
453kts
Departed: 28-Dec-17 07:51 PM
Arrived: 28-Dec-17 09:13 PM
Distance/Time
Traveled:
478nm/1:22
Distance/Time
To Go:
Arrived

Flight Plot

Page will automatically refresh every two minutes.


Map Options




Map Legend


Flown Route
Filed Route
Departure Airport
Arrival Airport
Navaid (VOR, NDB)
Fix

Horizontal Profiles

Position Reports

Time Latitude Longitude Heading Altitude Ground
Speed
28-Dec-17 19:39 37.612227 -122.384209 50 20ft 0kts
28-Dec-17 19:40 37.612227 -122.384209 50 20ft 0kts
28-Dec-17 19:41 37.612227 -122.384209 50 20ft 0kts
28-Dec-17 19:42 37.612227 -122.384209 50 20ft 0kts
28-Dec-17 19:43 37.612227 -122.384209 50 20ft 0kts
28-Dec-17 19:44 37.612227 -122.384209 50 20ft 0kts
28-Dec-17 19:45 37.612227 -122.384209 50 20ft 0kts
28-Dec-17 19:46 37.612227 -122.384209 50 20ft 0kts
28-Dec-17 19:47 37.612227 -122.384209 50 20ft 0kts
28-Dec-17 19:48 37.612227 -122.384209 50 20ft 0kts
28-Dec-17 19:49 37.612126 -122.384361 50 20ft 2kts
28-Dec-17 19:50 37.611912 -122.384754 185 20ft 2kts
28-Dec-17 19:51 37.612025 -122.384739 185 20ft 0kts
28-Dec-17 19:52 37.612025 -122.384739 185 20ft 0kts
28-Dec-17 19:53 37.611494 -122.384340 105 20ft 0kts
28-Dec-17 19:54 37.611476 -122.384266 107 20ft 0kts
28-Dec-17 19:55 37.609625 -122.383352 209 20ft 9kts
28-Dec-17 19:56 37.609565 -122.381823 27 20ft 19kts
28-Dec-17 19:57 37.637583 -122.362481 36 1155ft 164kts
28-Dec-17 19:58 37.669319 -122.307202 56 3180ft 233kts
28-Dec-17 19:59 37.710648 -122.232646 38 6123ft 273kts
28-Dec-17 20:00 37.785974 -122.216361 357 9301ft 287kts
28-Dec-17 20:01 37.869369 -122.218566 355 11705ft 328kts
28-Dec-17 20:02 37.968547 -122.221272 355 13701ft 369kts
28-Dec-17 20:03 38.073095 -122.224022 355 16266ft 383kts
28-Dec-17 20:04 38.181969 -122.226898 354 18623ft 397kts
28-Dec-17 20:05 38.294065 -122.229908 354 20792ft 409kts
28-Dec-17 20:06 38.409193 -122.236034 350 22756ft 418kts
28-Dec-17 20:07 38.527059 -122.249128 350 24522ft 429kts
28-Dec-17 20:08 38.646949 -122.261968 350 26162ft 437kts
28-Dec-17 20:09 38.769458 -122.274867 350 27632ft 444kts
28-Dec-17 20:10 38.893375 -122.287885 349 28981ft 450kts
28-Dec-17 20:11 39.017939 -122.301002 349 30548ft 447kts
28-Dec-17 20:12 39.141787 -122.314085 348 31989ft 444kts
28-Dec-17 20:13 39.264476 -122.327089 348 33350ft 441kts
28-Dec-17 20:14 39.386828 -122.340112 348 34633ft 438kts
28-Dec-17 20:15 39.507703 -122.353017 347 35845ft 435kts
28-Dec-17 20:16 39.628339 -122.365942 347 36298ft 436kts
28-Dec-17 20:17 39.748789 -122.378894 347 36301ft 432kts
28-Dec-17 20:18 39.868615 -122.391822 347 36299ft 432kts
28-Dec-17 20:19 39.988351 -122.404787 347 36300ft 432kts
28-Dec-17 20:20 40.108394 -122.417831 347 36300ft 432kts
28-Dec-17 20:21 40.227961 -122.430865 346 36298ft 432kts
28-Dec-17 20:22 40.348180 -122.444020 346 36295ft 432kts
28-Dec-17 20:23 40.468030 -122.457181 346 36291ft 433kts
28-Dec-17 20:24 40.588106 -122.470413 346 36290ft 433kts
28-Dec-17 20:25 40.708537 -122.483734 346 36290ft 434kts
28-Dec-17 20:26 40.828772 -122.497083 346 36291ft 434kts
28-Dec-17 20:27 40.948962 -122.510473 346 36291ft 434kts
28-Dec-17 20:28 41.069728 -122.523978 346 36292ft 434kts
28-Dec-17 20:29 41.190078 -122.537487 346 36291ft 434kts
28-Dec-17 20:30 41.310779 -122.551050 346 36291ft 434kts
28-Dec-17 20:31 41.430962 -122.564663 346 36306ft 434kts
28-Dec-17 20:32 41.551257 -122.577610 348 36325ft 436kts
28-Dec-17 20:33 41.672748 -122.585099 348 36346ft 436kts
28-Dec-17 20:34 41.793777 -122.592886 348 36357ft 436kts
28-Dec-17 20:35 41.915441 -122.600793 348 36353ft 437kts
28-Dec-17 20:36 42.036753 -122.608763 347 36344ft 436kts
28-Dec-17 20:37 42.157556 -122.616748 347 36336ft 435kts
28-Dec-17 20:38 42.279038 -122.624833 347 36332ft 436kts
28-Dec-17 20:39 42.400134 -122.632940 347 36328ft 436kts
28-Dec-17 20:40 42.521233 -122.641067 347 36323ft 436kts
28-Dec-17 20:41 42.642646 -122.649200 347 36319ft 436kts
28-Dec-17 20:42 42.763673 -122.657395 347 36309ft 436kts
28-Dec-17 20:43 42.884994 -122.665635 347 36296ft 435kts
28-Dec-17 20:44 43.005891 -122.673883 347 36282ft 435kts
28-Dec-17 20:45 43.126769 -122.682131 346 36270ft 435kts
28-Dec-17 20:46 43.247965 -122.690453 346 36259ft 435kts
28-Dec-17 20:47 43.368733 -122.698797 346 36229ft 435kts
28-Dec-17 20:48 43.489947 -122.707159 346 36220ft 435kts
28-Dec-17 20:49 43.610388 -122.715503 346 34768ft 432kts
28-Dec-17 20:50 43.731102 -122.723905 348 32018ft 436kts
28-Dec-17 20:51 43.850724 -122.732200 348 29965ft 423kts
28-Dec-17 20:52 43.966511 -122.740280 348 28028ft 411kts
28-Dec-17 20:53 44.078963 -122.748192 348 26138ft 399kts
28-Dec-17 20:54 44.189278 -122.750944 354 24268ft 396kts
28-Dec-17 20:55 44.297831 -122.739030 355 22437ft 387kts
28-Dec-17 20:56 44.404110 -122.728193 354 20631ft 377kts
28-Dec-17 20:57 44.507641 -122.717861 354 18854ft 369kts
28-Dec-17 20:58 44.607024 -122.707966 353 17650ft 348kts
28-Dec-17 20:59 44.703639 -122.698267 353 16048ft 344kts
28-Dec-17 21:00 44.797910 -122.688760 353 14578ft 336kts
28-Dec-17 21:01 44.890442 -122.679459 353 13140ft 329kts
28-Dec-17 21:02 44.977350 -122.670689 352 12455ft 301kts
28-Dec-17 21:03 45.060545 -122.662272 353 11189ft 300kts
28-Dec-17 21:04 45.142463 -122.653958 353 10237ft 289kts
28-Dec-17 21:05 45.222191 -122.645762 354 9275ft 285kts
28-Dec-17 21:06 45.296611 -122.667687 329 8324ft 285kts
28-Dec-17 21:07 45.371004 -122.709638 330 7563ft 279kts
28-Dec-17 21:08 45.438588 -122.746659 328 7118ft 239kts
28-Dec-17 21:09 45.499423 -122.780155 329 5809ft 232kts
28-Dec-17 21:10 45.559411 -122.813273 331 4970ft 227kts
28-Dec-17 21:11 45.592968 -122.858538 294 4963ft 190kts
28-Dec-17 21:12 45.628043 -122.935155 305 3982ft 201kts
28-Dec-17 21:13 45.677929 -122.945111 46 3932ft 220kts
28-Dec-17 21:14 45.690065 -122.877729 86 3374ft 208kts
28-Dec-17 21:15 45.670635 -122.797328 127 2961ft 180kts
28-Dec-17 21:16 45.640465 -122.738908 121 1937ft 181kts
28-Dec-17 21:17 45.621057 -122.688083 118 1084ft 157kts
28-Dec-17 21:18 45.601024 -122.636571 119 290ft 142kts
28-Dec-17 21:19 45.586230 -122.598496 116 26ft 25kts
28-Dec-17 21:20 45.588177 -122.598120 300 26ft 23kts
28-Dec-17 21:21 45.589937 -122.600204 79 26ft 4kts

Navigation Log

Ident Type
Flight plan parsing failed, navigation log unavailable